Time;durP1;ratioP1;P1;durP2;ratioP2;P2;SDS_P1;SDS_P2;PMS_P1;PMS_P2;Temp;Humidity;BMP_temperature;BMP_pressure;BME280_temperature;BME280_humidity;BME280_pressure;Samples;Min_cycle;Max_cycle;Signal;HPM_P1;HPM_P2
2022/02/05 00:01:39;;;;;;;27.00;2.78;;;3.80;99.90;;;;;;5054587;28;20028;-49
2022/02/05 00:04:09;;;;;;;26.90;5.05;;;3.80;99.90;;;;;;5050870;28;20418;-48
2022/02/05 00:06:39;;;;;;;17.52;3.03;;;3.80;99.90;;;;;;5055999;28;20068;-50
2022/02/05 00:42:05;;;;;;;8.53;2.13;;;3.70;99.90;;;;;;5035926;28;20124;-50
2022/02/05 00:44:02;;;;;;;12.55;2.88;;;3.70;99.90;;;;;;5049200;28;20041;-48
2022/02/05 00:46:33;;;;;;;11.13;2.40;;;3.70;99.90;;;;;;5052468;28;21056;-50
2022/02/05 00:48:59;;;;;;;15.60;2.50;;;3.70;99.90;;;;;;5056524;28;20158;-49
2022/02/05 00:51:40;;;;;;;10.63;2.20;;;3.70;99.90;;;;;;5058292;28;20020;-48
2022/02/05 00:54:11;;;;;;;16.95;2.60;;;3.70;99.90;;;;;;5052917;28;20041;-50
2022/02/05 00:59:13;;;;;;;8.35;1.90;;;3.70;99.90;;;;;;5051787;28;20028;-48
2022/02/05 01:01:39;;;;;;;12.25;2.60;;;3.80;99.90;;;;;;5050864;28;20138;-50
2022/02/05 01:04:04;;;;;;;7.95;1.88;;;3.80;99.90;;;;;;5050841;28;21010;-48
2022/02/05 01:06:30;;;;;;;12.57;2.20;;;3.80;99.90;;;;;;5049802;28;20136;-48
2022/02/05 01:08:56;;;;;;;16.40;2.30;;;3.80;99.90;;;;;;5052804;28;20051;-48
2022/02/05 01:11:22;;;;;;;8.48;1.75;;;3.80;99.90;;;;;;5063520;28;20025;-49
2022/02/05 01:13:49;;;;;;;7.53;2.08;;;3.70;99.90;;;;;;5064165;28;20031;-47
2022/02/05 01:16:23;;;;;;;12.90;3.10;;;3.60;99.90;;;;;;5065668;28;20498;-47
2022/02/05 01:18:49;;;;;;;12.90;2.05;;;3.50;99.90;;;;;;5051987;28;20134;-48
2022/02/05 01:21:28;;;;;;;6.28;1.77;;;3.50;99.90;;;;;;5060595;28;20441;-49
2022/02/05 01:24:00;;;;;;;11.32;2.95;;;3.50;99.90;;;;;;5068051;28;20032;-48
2022/02/05 01:29:05;;;;;;;7.65;1.83;;;3.40;99.90;;;;;;5063198;28;20036;-48
2022/02/05 01:31:38;;;;;;;10.07;1.90;;;3.40;99.90;;;;;;5063502;28;20095;-48
2022/02/05 01:53:29;;;;;;;6.50;1.95;;;3.40;99.90;;;;;;5067468;28;20021;-50
2022/02/05 01:58:23;;;;;;;26.90;2.83;;;3.50;99.90;;;;;;5064391;28;20035;-48
2022/02/05 02:22:08;;;;;;;12.32;2.20;;;3.60;99.90;;;;;;5069721;28;20056;-48
2022/02/05 02:30:30;;;;;;;6.22;1.95;;;3.60;99.90;;;;;;4987455;28;20031;-47
2022/02/05 02:33:09;;;;;;;12.70;2.67;;;3.70;99.90;;;;;;5061713;28;20405;-47
2022/02/05 02:35:38;;;;;;;8.18;2.15;;;3.70;99.90;;;;;;5069960;28;20154;-47
2022/02/05 02:38:10;;;;;;;7.63;1.80;;;3.60;99.90;;;;;;5051003;28;20090;-48
2022/02/05 02:40:57;;;;;;;8.43;1.70;;;3.60;99.90;;;;;;5059483;28;20479;-47
2022/02/05 02:43:27;;;;;;;5.35;2.00;;;3.50;99.90;;;;;;5061502;28;20044;-47
2022/02/05 02:45:52;;;;;;;8.60;2.03;;;3.60;99.90;;;;;;5069082;28;20033;-47
2022/02/05 02:48:18;;;;;;;11.70;3.08;;;3.60;99.90;;;;;;5064647;28;20402;-52
2022/02/05 02:59:20;;;;;;;12.98;3.60;;;3.60;99.90;;;;;;5060890;28;20107;-50
2022/02/05 03:01:46;;;;;;;12.90;3.58;;;3.60;99.90;;;;;;5056662;28;20486;-48
2022/02/05 03:04:12;;;;;;;12.32;3.28;;;3.60;99.90;;;;;;5067545;28;20149;-47
2022/02/05 03:06:38;;;;;;;10.10;2.45;;;3.70;99.90;;;;;;5060402;28;20505;-47
2022/02/05 03:09:03;;;;;;;15.13;2.58;;;3.60;99.90;;;;;;5068324;28;20035;-48
2022/02/05 03:11:29;;;;;;;14.80;3.60;;;3.60;99.90;;;;;;5055997;28;20626;-47
2022/02/05 03:13:55;;;;;;;13.73;2.55;;;3.50;99.90;;;;;;5059673;28;20120;-47
2022/02/05 03:16:28;;;;;;;12.20;3.22;;;3.50;99.90;;;;;;5065518;28;20132;-50
2022/02/05 03:21:22;;;;;;;13.38;2.95;;;3.30;99.90;;;;;;5061808;28;20477;-47
2022/02/05 03:23:47;;;;;;;7.07;1.70;;;3.30;99.90;;;;;;5060725;28;20516;-50
2022/02/05 03:26:13;;;;;;;8.27;2.00;;;3.20;99.90;;;;;;5062648;28;20028;-49
2022/02/05 03:28:39;;;;;;;7.35;1.60;;;3.20;99.90;;;;;;5060062;28;20036;-49
2022/02/05 03:31:05;;;;;;;6.90;1.90;;;3.20;99.90;;;;;;5058572;28;20033;-48
2022/02/05 03:33:30;;;;;;;9.57;1.70;;;3.20;99.90;;;;;;5056929;28;20036;-48
2022/02/05 03:35:56;;;;;;;4.82;1.35;;;3.20;99.90;;;;;;5067301;28;20045;-50
2022/02/05 03:38:22;;;;;;;6.57;1.90;;;3.20;99.90;;;;;;5069155;28;20116;-52
2022/02/05 03:40:47;;;;;;;7.13;1.40;;;3.10;99.90;;;;;;5062439;28;20056;-48
2022/02/05 03:43:13;;;;;;;14.63;1.45;;;3.00;99.90;;;;;;5056194;28;20024;-51
2022/02/05 03:45:39;;;;;;;14.20;2.00;;;2.90;99.90;;;;;;5063918;28;20055;-49
2022/02/05 03:48:06;;;;;;;8.95;1.48;;;2.70;99.90;;;;;;5065170;28;20031;-49
2022/02/05 03:50:32;;;;;;;6.55;1.25;;;2.50;99.90;;;;;;5060669;28;20300;-50
2022/02/05 03:52:58;;;;;;;10.68;1.60;;;2.30;99.90;;;;;;5059971;28;20431;-50
2022/02/05 03:55:25;;;;;;;5.20;1.73;;;2.20;99.90;;;;;;5060895;28;20029;-50
2022/02/05 03:57:51;;;;;;;3.30;1.10;;;2.20;99.90;;;;;;5058574;28;20112;-51
2022/02/05 04:00:17;;;;;;;4.13;1.10;;;2.20;99.90;;;;;;5066767;28;20454;-50
2022/02/05 04:02:43;;;;;;;10.85;1.20;;;2.20;99.90;;;;;;5059379;28;20482;-49
2022/02/05 04:05:09;;;;;;;3.13;1.23;;;2.20;99.90;;;;;;5061408;28;20413;-50
2022/02/05 04:07:39;;;;;;;8.70;2.05;;;2.20;99.90;;;;;;5067299;28;20032;-50
2022/02/05 04:10:08;;;;;;;5.38;1.40;;;2.10;99.90;;;;;;5063630;28;20021;-50
2022/02/05 04:18:03;;;;;;;11.13;2.50;;;2.10;99.90;;;;;;5059855;28;20038;-49
2022/02/05 04:20:28;;;;;;;9.38;1.75;;;2.10;99.90;;;;;;5065203;28;20024;-49
2022/02/05 04:22:55;;;;;;;4.78;1.33;;;2.20;99.90;;;;;;5059804;28;20033;-50
2022/02/05 04:25:20;;;;;;;7.65;1.50;;;2.20;99.90;;;;;;5065769;28;20035;-50
2022/02/05 04:27:46;;;;;;;9.65;1.88;;;2.20;99.90;;;;;;5057128;28;20040;-49
2022/02/05 04:30:12;;;;;;;8.13;1.90;;;2.20;99.90;;;;;;5062538;28;20041;-50
2022/02/05 04:32:38;;;;;;;8.40;1.98;;;2.20;99.90;;;;;;5060706;28;20032;-49
2022/02/05 04:35:04;;;;;;;8.07;1.75;;;2.20;99.90;;;;;;5059478;28;20199;-49
2022/02/05 04:37:31;;;;;;;8.98;2.35;;;2.20;99.90;;;;;;5063020;28;20115;-51
2022/02/05 04:40:44;;;;;;;7.18;2.05;;;2.20;99.90;;;;;;5065479;28;20474;-49
2022/02/05 04:42:57;;;;;;;3.95;1.67;;;2.20;99.90;;;;;;5054370;28;20430;-50
2022/02/05 04:48:29;;;;;;;13.57;2.42;;;2.20;99.90;;;;;;5067759;28;20032;-50
2022/02/05 04:56:36;;;;;;;14.07;2.63;;;2.20;99.90;;;;;;5060679;28;20043;-50
2022/02/05 05:04:33;;;;;;;14.73;2.45;;;2.40;99.90;;;;;;5065202;28;20386;-49
2022/02/05 05:09:45;;;;;;;9.82;2.05;;;2.40;99.90;;;;;;5071223;28;20548;-49
2022/02/05 05:20:11;;;;;;;11.52;2.15;;;2.50;99.90;;;;;;5063801;28;20071;-49
2022/02/05 05:22:37;;;;;;;9.70;2.55;;;2.60;99.90;;;;;;5062828;28;20037;-49
2022/02/05 05:25:03;;;;;;;15.30;2.22;;;2.60;99.90;;;;;;5062688;28;20032;-48
2022/02/05 05:27:30;;;;;;;13.80;2.28;;;2.60;99.90;;;;;;5061658;28;20028;-50
2022/02/05 05:29:56;;;;;;;11.77;2.35;;;2.60;99.90;;;;;;5059798;28;20703;-49
2022/02/05 05:32:22;;;;;;;12.80;2.40;;;2.60;99.90;;;;;;5061693;28;20100;-49
2022/02/05 05:34:48;;;;;;;11.82;2.35;;;2.70;99.90;;;;;;5069504;28;20020;-49
2022/02/05 05:37:13;;;;;;;14.68;2.22;;;2.60;99.90;;;;;;5058300;28;20032;-50
2022/02/05 05:39:42;;;;;;;12.93;2.25;;;2.60;99.90;;;;;;5068010;28;20836;-49
2022/02/05 05:42:13;;;;;;;10.48;2.38;;;2.60;99.90;;;;;;5061190;28;20025;-51
2022/02/05 05:47:57;;;;;;;10.57;2.47;;;2.60;99.90;;;;;;5057788;28;20108;-49
2022/02/05 05:52:29;;;;;;;13.70;1.98;;;2.50;99.90;;;;;;5061854;28;20044;-49
2022/02/05 05:54:55;;;;;;;11.80;2.15;;;2.50;99.90;;;;;;5060830;28;20108;-49
2022/02/05 05:57:21;;;;;;;13.45;2.10;;;2.50;99.90;;;;;;5068635;28;20039;-49
2022/02/05 05:59:47;;;;;;;13.25;2.45;;;2.50;99.90;;;;;;5067956;28;20032;-49
2022/02/05 06:02:13;;;;;;;12.93;1.88;;;2.50;99.90;;;;;;5059183;28;20025;-49
2022/02/05 06:04:39;;;;;;;13.48;1.88;;;2.50;99.90;;;;;;5068274;28;20036;-50
2022/02/05 06:07:04;;;;;;;10.75;1.83;;;2.50;99.90;;;;;;5068761;28;20056;-49
2022/02/05 06:09:30;;;;;;;12.32;2.08;;;2.40;99.90;;;;;;5065008;28;20048;-49
2022/02/05 06:11:56;;;;;;;11.18;2.03;;;2.40;99.90;;;;;;5061481;28;20032;-50
2022/02/05 06:14:26;;;;;;;15.05;2.42;;;2.40;99.90;;;;;;5061882;28;20039;-49
2022/02/05 06:16:57;;;;;;;16.17;2.40;;;2.40;99.90;;;;;;5061221;28;20044;-49
2022/02/05 06:19:23;;;;;;;13.05;2.65;;;2.40;99.90;;;;;;5070589;28;20385;-49
2022/02/05 06:21:48;;;;;;;8.93;2.55;;;2.40;99.90;;;;;;5068274;28;20498;-50
2022/02/05 06:24:14;;;;;;;13.25;2.45;;;2.40;99.90;;;;;;5068525;28;20165;-48
2022/02/05 06:26:40;;;;;;;14.10;2.22;;;2.40;99.90;;;;;;5069263;28;20028;-49
2022/02/05 06:29:06;;;;;;;11.88;2.40;;;2.40;99.90;;;;;;5062208;28;20040;-49
2022/02/05 06:31:31;;;;;;;13.65;2.55;;;2.40;99.90;;;;;;5068638;28;20060;-49
2022/02/05 06:33:57;;;;;;;17.77;2.97;;;2.40;99.90;;;;;;5070201;28;20111;-49
2022/02/05 06:36:23;;;;;;;18.27;3.05;;;2.30;99.90;;;;;;5069850;28;20060;-49
2022/02/05 06:38:49;;;;;;;20.95;2.42;;;2.40;99.90;;;;;;5071079;28;20397;-50
2022/02/05 06:41:15;;;;;;;8.63;2.08;;;2.30;99.90;;;;;;5068724;28;20024;-50
2022/02/05 06:43:41;;;;;;;15.15;2.88;;;2.30;99.90;;;;;;5060057;28;20115;-49
2022/02/05 06:46:07;;;;;;;16.73;2.70;;;2.30;99.90;;;;;;5067858;28;20036;-48
2022/02/05 06:48:33;;;;;;;21.75;3.03;;;2.40;99.90;;;;;;5061689;28;20115;-48
2022/02/05 06:50:59;;;;;;;17.85;2.92;;;2.40;99.90;;;;;;5062501;28;20111;-50
2022/02/05 06:53:25;;;;;;;20.48;2.67;;;2.30;99.90;;;;;;5062596;28;20052;-50
2022/02/05 06:55:50;;;;;;;20.73;2.83;;;2.40;99.90;;;;;;5065405;28;20419;-49
2022/02/05 06:58:16;;;;;;;26.10;3.17;;;2.40;99.90;;;;;;5063601;28;20036;-49
2022/02/05 07:00:42;;;;;;;20.55;2.63;;;2.30;99.90;;;;;;5069382;28;20063;-49
2022/02/05 07:03:10;;;;;;;22.48;3.30;;;2.30;99.90;;;;;;5068406;28;20048;-50
2022/02/05 07:05:36;;;;;;;16.67;2.67;;;2.30;99.90;;;;;;5068771;28;20108;-52
2022/02/05 07:08:02;;;;;;;11.48;2.25;;;2.30;99.90;;;;;;5060991;28;20112;-49
2022/02/05 07:10:28;;;;;;;21.90;3.17;;;2.30;99.90;;;;;;5061098;28;20064;-49
2022/02/05 07:13:10;;;;;;;18.45;3.00;;;2.30;99.90;;;;;;5060069;28;20068;-49
2022/02/05 07:15:41;;;;;;;16.85;3.08;;;2.30;99.90;;;;;;5067167;28;20407;-51
2022/02/05 07:18:22;;;;;;;20.10;2.28;;;2.40;99.90;;;;;;5068707;28;20045;-49
2022/02/05 07:21:00;;;;;;;18.65;2.58;;;2.50;99.90;;;;;;5070339;28;20078;-49
2022/02/05 07:31:32;;;;;;;23.38;4.10;;;2.60;99.90;;;;;;5067740;28;20054;-48
2022/02/05 07:33:59;;;;;;;23.75;2.72;;;2.60;99.90;;;;;;5067244;28;20028;-49
2022/02/05 07:36:25;;;;;;;24.55;2.63;;;2.60;99.90;;;;;;5061165;28;20052;-51
2022/02/05 07:38:51;;;;;;;23.80;3.22;;;2.60;99.90;;;;;;5068767;28;20086;-51
2022/02/05 07:41:16;;;;;;;16.60;2.30;;;2.70;99.90;;;;;;5067685;28;20498;-50
2022/02/05 07:43:43;;;;;;;13.23;2.70;;;2.70;99.90;;;;;;5065313;28;20440;-49
2022/02/05 07:46:11;;;;;;;24.10;3.22;;;2.70;99.90;;;;;;5058959;28;20095;-50
2022/02/05 07:48:38;;;;;;;15.82;3.38;;;2.70;99.90;;;;;;5061789;28;20568;-53
2022/02/05 07:51:04;;;;;;;19.65;2.67;;;2.70;99.90;;;;;;5068549;28;20116;-49
2022/02/05 07:53:31;;;;;;;16.13;2.78;;;2.70;99.90;;;;;;5060891;28;20060;-51
2022/02/05 07:55:57;;;;;;;22.17;2.78;;;2.70;99.90;;;;;;5059140;28;20040;-51
2022/02/05 07:58:23;;;;;;;24.40;2.78;;;2.70;99.90;;;;;;5065936;28;20032;-51
2022/02/05 08:00:50;;;;;;;16.63;2.58;;;2.70;99.90;;;;;;5068900;28;20085;-50
2022/02/05 08:03:16;;;;;;;17.15;2.72;;;2.70;99.90;;;;;;5056634;28;20038;-50
2022/02/05 08:05:42;;;;;;;18.00;2.80;;;2.80;99.90;;;;;;5054389;28;20494;-49
2022/02/05 08:08:12;;;;;;;19.27;3.40;;;2.80;99.90;;;;;;5068757;28;20033;-49
2022/02/05 08:10:46;;;;;;;26.05;3.30;;;2.80;99.90;;;;;;5063819;28;20522;-49
2022/02/05 08:13:12;;;;;;;20.92;2.75;;;2.80;99.90;;;;;;5052153;28;20044;-51
2022/02/05 08:15:37;;;;;;;20.45;3.10;;;2.90;99.90;;;;;;5063730;28;20024;-50
2022/02/05 08:18:03;;;;;;;13.13;3.08;;;2.90;99.90;;;;;;5068699;28;20120;-49
2022/02/05 08:20:29;;;;;;;19.27;3.38;;;2.90;99.90;;;;;;5060467;28;20518;-49
2022/02/05 08:22:54;;;;;;;24.98;4.05;;;2.90;99.90;;;;;;5066222;28;20063;-52
2022/02/05 08:25:20;;;;;;;23.38;3.47;;;3.00;99.90;;;;;;5061990;28;20550;-55
2022/02/05 08:27:45;;;;;;;23.17;3.72;;;3.40;99.90;;;;;;5066901;28;20033;-49
2022/02/05 08:30:13;;;;;;;25.75;3.88;;;3.50;99.90;;;;;;5059821;28;20016;-46
2022/02/05 08:32:40;;;;;;;24.90;3.58;;;3.60;99.90;;;;;;5069836;28;20550;-49
2022/02/05 08:35:07;;;;;;;24.63;3.65;;;3.60;99.90;;;;;;5072693;28;20021;-51
2022/02/05 08:37:41;;;;;;;36.88;3.80;;;3.50;99.90;;;;;;5072606;28;20028;-51
2022/02/05 08:40:08;;;;;;;33.05;4.50;;;3.40;99.90;;;;;;5072333;28;20424;-50
2022/02/05 08:42:34;;;;;;;19.88;3.63;;;3.30;99.90;;;;;;5064341;28;20032;-50
2022/02/05 08:44:59;;;;;;;28.45;3.72;;;3.40;99.90;;;;;;5070739;28;20445;-51
2022/02/05 08:47:25;;;;;;;25.13;3.53;;;3.40;99.90;;;;;;5064539;28;20033;-51
2022/02/05 08:49:56;;;;;;;33.35;4.57;;;3.40;99.90;;;;;;5066610;28;20047;-49
2022/02/05 08:52:22;;;;;;;21.63;3.28;;;3.50;99.90;;;;;;5070500;28;20052;-49
2022/02/05 08:54:48;;;;;;;23.45;3.80;;;3.50;99.90;;;;;;5071420;28;20028;-50
2022/02/05 08:57:14;;;;;;;26.02;5.53;;;3.60;99.90;;;;;;5062282;28;20977;-48
2022/02/05 08:59:57;;;;;;;32.72;5.00;;;3.80;99.90;;;;;;5069694;28;20041;-50
2022/02/05 09:02:34;;;;;;;26.08;4.40;;;3.90;99.90;;;;;;5072334;28;20028;-48
2022/02/05 09:05:12;;;;;;;28.42;4.57;;;4.10;99.90;;;;;;5072076;28;20652;-50
2022/02/05 09:07:40;;;;;;;24.73;4.32;;;4.20;99.90;;;;;;5072637;28;20036;-49
2022/02/05 09:10:34;;;;;;;21.83;4.68;;;4.30;99.90;;;;;;5072374;28;20032;-49
2022/02/05 09:13:07;;;;;;;29.02;3.60;;;4.50;99.90;;;;;;5072550;28;20036;-49
2022/02/05 09:15:33;;;;;;;22.73;5.05;;;4.50;99.90;;;;;;5071671;28;20028;-48
2022/02/05 09:17:58;;;;;;;27.17;4.07;;;4.50;99.90;;;;;;5072397;28;20027;-50
2022/02/05 09:20:25;;;;;;;27.02;4.22;;;4.60;99.90;;;;;;5071909;28;20029;-49
2022/02/05 09:22:53;;;;;;;31.95;4.00;;;4.70;99.90;;;;;;5072519;28;20559;-53
2022/02/05 09:25:21;;;;;;;24.38;4.38;;;4.70;99.90;;;;;;5071216;28;20032;-50
2022/02/05 09:27:47;;;;;;;24.95;3.88;;;4.60;99.90;;;;;;5072561;28;20094;-48
2022/02/05 09:30:16;;;;;;;32.53;5.03;;;4.50;99.90;;;;;;5071971;28;20115;-50
2022/02/05 09:32:42;;;;;;;26.63;3.72;;;4.40;99.90;;;;;;5071557;28;20031;-50
2022/02/05 09:35:10;;;;;;;25.85;3.65;;;4.40;99.90;;;;;;5071096;28;20067;-48
2022/02/05 09:37:37;;;;;;;18.42;3.72;;;4.40;99.90;;;;;;5072222;28;20036;-49
2022/02/05 09:40:04;;;;;;;27.60;5.07;;;4.30;99.90;;;;;;5072099;28;20035;-51
2022/02/05 09:42:30;;;;;;;21.85;4.07;;;4.30;99.90;;;;;;5070108;28;20032;-50
2022/02/05 09:45:00;;;;;;;25.50;3.30;;;4.30;99.90;;;;;;5071409;28;20028;-50
2022/02/05 09:47:25;;;;;;;24.63;3.58;;;4.30;99.90;;;;;;5071431;28;20062;-50
2022/02/05 09:49:51;;;;;;;27.65;3.80;;;4.20;99.90;;;;;;5071598;28;20058;-48
2022/02/05 09:52:25;;;;;;;31.08;4.20;;;4.20;99.90;;;;;;5071315;28;20054;-48
2022/02/05 09:54:52;;;;;;;21.10;3.85;;;4.30;99.90;;;;;;5071799;28;20032;-49
2022/02/05 09:57:19;;;;;;;20.33;3.25;;;4.30;99.90;;;;;;5071204;28;20389;-48
2022/02/05 09:59:48;;;;;;;22.00;3.45;;;4.40;99.90;;;;;;5065978;28;20067;-49
2022/02/05 10:02:17;;;;;;;21.02;3.45;;;4.40;99.90;;;;;;5067186;28;20035;-50
2022/02/05 10:05:03;;;;;;;24.38;3.70;;;4.50;99.90;;;;;;5070927;28;20111;-47
2022/02/05 10:07:30;;;;;;;16.40;3.08;;;4.50;99.90;;;;;;5069059;28;20161;-47
2022/02/05 10:09:58;;;;;;;23.65;3.50;;;4.50;99.90;;;;;;5062997;28;20104;-48
2022/02/05 10:12:24;;;;;;;24.77;3.50;;;4.70;99.90;;;;;;5070203;28;20111;-47
2022/02/05 10:14:54;;;;;;;26.45;4.35;;;4.70;99.90;;;;;;5062989;28;20012;-49
2022/02/05 10:17:20;;;;;;;27.85;4.03;;;4.70;99.90;;;;;;5069865;28;20024;-49
2022/02/05 10:19:49;;;;;;;21.92;3.00;;;4.80;99.90;;;;;;5063022;28;20086;-48
2022/02/05 10:22:15;;;;;;;24.55;3.78;;;4.80;99.90;;;;;;5068599;28;20027;-47
2022/02/05 10:24:55;;;;;;;23.05;4.18;;;4.90;99.90;;;;;;5057097;28;20033;-52
2022/02/05 10:27:37;;;;;;;22.63;3.80;;;5.00;99.90;;;;;;5060962;28;20449;-50
2022/02/05 10:30:24;;;;;;;29.85;3.85;;;5.10;99.90;;;;;;5067146;28;20065;-49
2022/02/05 10:33:08;;;;;;;30.80;3.75;;;5.10;99.90;;;;;;5070920;28;20036;-48
2022/02/05 10:44:09;;;;;;;22.77;3.53;;;5.50;99.90;;;;;;5071650;28;20024;-48
2022/02/05 10:46:38;;;;;;;25.83;3.78;;;5.50;99.90;;;;;;5070396;28;20020;-48
2022/02/05 10:49:04;;;;;;;34.40;4.47;;;5.60;99.90;;;;;;5067234;28;20036;-48
2022/02/05 10:51:46;;;;;;;18.25;3.53;;;5.60;99.90;;;;;;5062486;28;20041;-48
2022/02/05 10:54:26;;;;;;;26.38;4.35;;;5.60;99.90;;;;;;5061993;28;20032;-49
2022/02/05 10:57:19;;;;;;;27.58;4.20;;;5.60;99.90;;;;;;5076568;28;20390;-47
2022/02/05 11:05:50;;;;;;;28.27;4.68;;;5.70;99.90;;;;;;5061118;28;20032;-48
2022/02/05 11:08:13;;;;;;;25.48;4.03;;;5.90;99.90;;;;;;5065264;28;20069;-47
2022/02/05 11:13:26;;;;;;;34.90;5.85;;;5.80;99.90;;;;;;5070639;28;20071;-49
2022/02/05 11:21:17;;;;;;;32.35;4.55;;;6.00;99.90;;;;;;5070055;28;20078;-47
2022/02/05 11:23:48;;;;;;;25.85;4.22;;;5.90;99.90;;;;;;5070069;28;20025;-47
2022/02/05 11:26:14;;;;;;;43.08;5.22;;;5.80;99.90;;;;;;5069019;28;20024;-47
2022/02/05 11:28:55;;;;;;;34.00;4.93;;;5.90;99.90;;;;;;5070298;28;20065;-47
2022/02/05 11:31:35;;;;;;;23.45;4.65;;;5.90;99.90;;;;;;5069603;28;20020;-48
2022/02/05 11:34:36;;;;;;;31.52;4.35;;;6.00;99.90;;;;;;5069951;28;20142;-47
2022/02/05 11:37:10;;;;;;;31.08;4.82;;;5.90;99.90;;;;;;5058809;28;20062;-49
2022/02/05 11:39:54;;;;;;;27.23;4.65;;;5.90;99.90;;;;;;5069629;28;20025;-47
2022/02/05 11:42:31;;;;;;;24.00;4.35;;;5.90;99.90;;;;;;5069131;28;20386;-50
2022/02/05 11:44:59;;;;;;;26.95;4.45;;;5.90;99.90;;;;;;5069273;28;20489;-50
2022/02/05 11:47:27;;;;;;;24.58;3.75;;;6.00;99.90;;;;;;5069212;28;20021;-48
2022/02/05 11:49:52;;;;;;;27.52;5.18;;;6.20;99.90;;;;;;5069728;28;20040;-49
2022/02/05 11:52:36;;;;;;;27.63;4.72;;;6.30;99.90;;;;;;5069373;28;20028;-48
2022/02/05 11:55:04;;;;;;;30.35;4.80;;;6.40;99.90;;;;;;5069175;28;20362;-47
2022/02/05 11:57:42;;;;;;;22.42;3.50;;;6.50;99.90;;;;;;5069516;28;20466;-47
2022/02/05 12:00:10;;;;;;;31.15;3.55;;;6.50;99.90;;;;;;5070191;28;20108;-47
2022/02/05 12:02:42;;;;;;;23.73;4.25;;;6.70;99.90;;;;;;5069713;28;20037;-47
2022/02/05 12:05:11;;;;;;;27.92;4.43;;;6.60;99.90;;;;;;5068998;28;20029;-49
2022/02/05 12:07:37;;;;;;;38.50;4.28;;;6.70;99.90;;;;;;5073701;28;20036;-47
2022/02/05 12:10:42;;;;;;;29.75;5.00;;;6.80;99.90;;;;;;5073947;28;20032;-48
2022/02/05 12:13:20;;;;;;;22.48;3.17;;;7.00;99.90;;;;;;5073733;28;20025;-49
2022/02/05 12:15:47;;;;;;;31.15;6.05;;;7.20;99.90;;;;;;5072969;28;20032;-49
2022/02/05 12:20:57;;;;;;;23.15;3.38;;;7.50;99.90;;;;;;5072317;28;20025;-47
2022/02/05 12:25:59;;;;;;;28.08;4.65;;;6.90;99.90;;;;;;5072556;28;20481;-48
2022/02/05 12:28:33;;;;;;;25.48;5.53;;;6.80;99.90;;;;;;5072511;28;20039;-49
2022/02/05 12:31:01;;;;;;;23.73;3.60;;;6.60;99.90;;;;;;5073725;28;20478;-47
2022/02/05 12:33:54;;;;;;;22.85;4.43;;;6.40;99.90;;;;;;5072671;28;20028;-49
2022/02/05 12:36:35;;;;;;;28.35;5.38;;;6.30;99.90;;;;;;5072161;28;20066;-46
2022/02/05 12:39:03;;;;;;;16.65;4.38;;;6.30;99.90;;;;;;5073445;28;20039;-47
2022/02/05 12:41:30;;;;;;;21.08;3.25;;;6.20;99.90;;;;;;5072948;28;20508;-49
2022/02/05 12:43:58;;;;;;;20.25;3.70;;;6.20;99.90;;;;;;5073686;28;20025;-49
2022/02/05 12:46:29;;;;;;;26.58;4.10;;;6.10;99.90;;;;;;5070689;28;20037;-46
2022/02/05 12:49:02;;;;;;;23.67;4.18;;;6.10;99.90;;;;;;5073081;28;20033;-49
2022/02/05 12:51:30;;;;;;;23.30;3.80;;;6.10;99.90;;;;;;5072363;28;20056;-49
2022/02/05 12:54:06;;;;;;;25.02;5.38;;;6.10;99.90;;;;;;5073051;28;20094;-48
2022/02/05 12:56:37;;;;;;;41.53;6.10;;;6.30;99.90;;;;;;5071678;28;20029;-47
2022/02/05 12:59:08;;;;;;;22.88;4.78;;;6.70;99.90;;;;;;5072690;28;20036;-48
2022/02/05 13:01:39;;;;;;;28.17;5.00;;;6.70;99.90;;;;;;5072265;28;20028;-47
2022/02/05 13:04:21;;;;;;;35.08;5.57;;;6.60;99.90;;;;;;5072930;28;20028;-47
2022/02/05 13:07:14;;;;;;;26.02;4.28;;;6.40;99.90;;;;;;5071942;28;20064;-48
2022/02/05 13:09:50;;;;;;;25.23;5.18;;;6.30;99.90;;;;;;5072361;28;20031;-47
2022/02/05 13:12:22;;;;;;;29.50;4.38;;;6.40;99.90;;;;;;5072102;28;20025;-50
2022/02/05 13:15:10;;;;;;;30.05;5.75;;;6.20;99.90;;;;;;5072712;28;20052;-47
2022/02/05 13:18:43;;;;;;;26.73;4.55;;;6.40;99.90;;;;;;5071740;28;20486;-48
2022/02/05 13:26:40;;;;;;;26.05;4.45;;;7.40;99.90;;;;;;5071547;28;20063;-48
2022/02/05 13:29:57;;;;;;;29.05;4.28;;;7.20;99.90;;;;;;5072896;28;20025;-47
2022/02/05 13:34:40;;;;;;;17.92;3.85;;;7.10;99.90;;;;;;5072457;28;20400;-47
2022/02/05 13:37:20;;;;;;;30.13;4.32;;;7.10;99.90;;;;;;5071735;28;20028;-46
2022/02/05 13:43:14;;;;;;;28.20;4.22;;;7.10;99.90;;;;;;5064217;22;20456;-49
2022/02/05 13:45:42;;;;;;;24.65;5.03;;;6.90;99.90;;;;;;5032868;28;20461;-53
2022/02/05 13:48:21;;;;;;;19.50;3.60;;;6.80;99.90;;;;;;5033594;28;20073;-49
2022/02/05 13:50:47;;;;;;;22.13;4.05;;;6.90;99.90;;;;;;5033645;28;20562;-49
2022/02/05 13:53:14;;;;;;;34.90;4.22;;;7.40;99.90;;;;;;5033565;28;20130;-50
2022/02/05 13:55:42;;;;;;;29.17;4.28;;;7.40;99.90;;;;;;5032964;28;20059;-51
2022/02/05 13:58:08;;;;;;;23.50;4.85;;;7.50;99.90;;;;;;5033399;28;20049;-58
2022/02/05 14:01:01;;;;;;;24.48;3.80;;;7.40;99.90;;;;;;5033266;28;20026;-53
2022/02/05 14:03:32;;;;;;;19.45;3.50;;;7.10;99.90;;;;;;5024695;28;20037;-58
2022/02/05 14:06:09;;;;;;;28.20;4.35;;;6.90;99.90;;;;;;5032517;28;20041;-54
2022/02/05 14:08:42;;;;;;;23.23;4.45;;;6.70;99.90;;;;;;5033358;28;20048;-55
2022/02/05 14:11:09;;;;;;;21.38;4.22;;;6.50;99.90;;;;;;5033288;28;20025;-59
2022/02/05 14:13:36;;;;;;;23.55;4.72;;;6.50;99.90;;;;;;5033182;28;20025;-56
2022/02/05 14:16:04;;;;;;;23.02;3.88;;;6.40;99.90;;;;;;5032961;28;20032;-54
2022/02/05 14:18:34;;;;;;;38.83;3.78;;;6.40;99.90;;;;;;5032672;28;20040;-53
2022/02/05 14:21:02;;;;;;;20.35;3.05;;;6.40;99.90;;;;;;5032839;28;20064;-56
2022/02/05 14:23:31;;;;;;;21.58;3.58;;;6.30;99.90;;;;;;5032738;28;20025;-56
2022/02/05 14:26:07;;;;;;;18.23;4.50;;;6.30;99.90;;;;;;5032634;28;20102;-55
2022/02/05 14:28:55;;;;;;;24.98;4.35;;;6.20;99.90;;;;;;5031756;28;20048;-54
2022/02/05 14:31:31;;;;;;;18.40;4.05;;;6.20;99.90;;;;;;5033184;28;20038;-58
2022/02/05 14:41:48;;;;;;;17.15;4.00;;;6.20;99.90;;;;;;5033285;28;20099;-51
2022/02/05 14:44:15;;;;;;;18.48;4.13;;;6.30;99.90;;;;;;5014717;28;20041;-52
2022/02/05 14:46:42;;;;;;;18.38;4.13;;;6.20;99.90;;;;;;5031889;28;20083;-52
2022/02/05 14:49:08;;;;;;;38.95;4.63;;;6.20;99.90;;;;;;5032580;28;20038;-52
2022/02/05 14:51:34;;;;;;;18.40;3.60;;;6.20;99.90;;;;;;4998466;28;20032;-53
2022/02/05 14:53:59;;;;;;;22.23;3.75;;;6.20;99.90;;;;;;5014511;28;20021;-52
2022/02/05 14:56:26;;;;;;;21.55;3.97;;;6.20;99.90;;;;;;5032275;28;20029;-52
2022/02/05 14:58:51;;;;;;;23.15;4.00;;;6.20;99.90;;;;;;5014587;28;20075;-53
2022/02/05 15:01:21;;;;;;;30.00;4.40;;;6.20;99.90;;;;;;5032380;28;20108;-50
2022/02/05 15:03:48;;;;;;;21.75;4.07;;;6.20;99.90;;;;;;5032107;28;20026;-48
2022/02/05 15:06:18;;;;;;;25.45;3.78;;;6.20;99.90;;;;;;5032164;28;20040;-54
2022/02/05 15:08:46;;;;;;;22.25;3.67;;;6.20;99.90;;;;;;5031919;28;20128;-48
2022/02/05 15:11:12;;;;;;;17.90;3.65;;;6.20;99.90;;;;;;5032301;28;20512;-54
2022/02/05 15:13:40;;;;;;;11.82;3.75;;;6.20;99.90;;;;;;5032056;28;20029;-53
2022/02/05 15:16:06;;;;;;;26.02;4.35;;;6.20;99.90;;;;;;5031926;28;20035;-47
2022/02/05 15:18:32;;;;;;;17.48;3.50;;;6.20;99.90;;;;;;5032034;28;20116;-48
2022/02/05 15:20:58;;;;;;;18.73;3.83;;;6.20;99.90;;;;;;5014121;28;20056;-49
2022/02/05 15:23:23;;;;;;;13.82;3.50;;;6.10;99.90;;;;;;5032256;28;20479;-49
2022/02/05 15:25:50;;;;;;;25.30;4.15;;;6.10;99.90;;;;;;5031866;28;20040;-47
2022/02/05 15:28:18;;;;;;;25.30;3.97;;;6.10;99.90;;;;;;5031637;28;20033;-48
2022/02/05 15:30:44;;;;;;;19.27;3.80;;;6.10;99.90;;;;;;5031435;28;20037;-49
2022/02/05 15:33:09;;;;;;;17.30;4.20;;;6.10;99.90;;;;;;5031431;28;20036;-52
2022/02/05 15:35:36;;;;;;;22.23;3.90;;;6.10;99.90;;;;;;5031118;28;20084;-51
2022/02/05 15:38:12;;;;;;;21.88;3.63;;;6.10;99.90;;;;;;5031315;28;20486;-52
2022/02/05 15:46:07;;;;;;;17.98;3.55;;;6.00;99.90;;;;;;5031234;28;20033;-47
2022/02/05 15:48:33;;;;;;;22.80;4.50;;;6.00;99.90;;;;;;5031400;28;20091;-48
2022/02/05 15:51:00;;;;;;;17.27;4.60;;;6.00;99.90;;;;;;5031559;28;20029;-48
2022/02/05 15:53:25;;;;;;;19.15;3.47;;;6.00;99.90;;;;;;5031146;28;20025;-51
2022/02/05 15:55:51;;;;;;;23.13;3.85;;;6.00;99.90;;;;;;5031097;28;20064;-52
2022/02/05 15:58:22;;;;;;;20.20;3.38;;;6.00;99.90;;;;;;5031237;28;20482;-48
2022/02/05 16:00:48;;;;;;;19.33;3.77;;;6.00;99.90;;;;;;5031088;28;20076;-49
2022/02/05 16:03:14;;;;;;;21.02;3.65;;;5.90;99.90;;;;;;5030891;28;20491;-51
2022/02/05 16:05:41;;;;;;;24.00;4.30;;;5.90;99.90;;;;;;5030710;28;20441;-52
2022/02/05 16:08:07;;;;;;;13.52;3.90;;;5.90;99.90;;;;;;5030611;28;20100;-48
2022/02/05 16:10:32;;;;;;;15.45;3.70;;;5.90;99.90;;;;;;5030907;28;20115;-49
2022/02/05 16:12:58;;;;;;;21.00;4.10;;;5.90;99.90;;;;;;5030913;28;20030;-53
2022/02/05 16:15:24;;;;;;;20.67;3.47;;;6.00;99.90;;;;;;5012885;28;20117;-51